Terminal Aerodrome Forecast
Issued by NWS

Home | Current Version | Previous Version | Text Only | Print | Product List | Glossary On
Versions: 1 2 3 4 5 6 7 8 9 10 11 12 13 14 15 16 17 18 19 20
000
FTUS43 KDDC 232332
TAFGCK
TAF
KGCK 232332Z 2400/2424 13007KT P6SM FEW200
     FM241500 35010KT P6SM OVC040
     FM241600 36020G30KT 4SM -SHRA OVC015=

USA.gov is the U.S. government's official web portal to all federal, state and local government web resources and services.